sensor_id;sensor_type;location;lat;lon;timestamp;P1;durP1;ratioP1;P2;durP2;ratioP2
39698;SDS011;25372;50.582;12.250;2023-04-15T00:03:04;1.83;;;1.20;;
39698;SDS011;25372;50.582;12.250;2023-04-15T00:13:25;2.25;;;1.55;;
39698;SDS011;25372;50.582;12.250;2023-04-15T00:23:47;2.13;;;1.70;;
39698;SDS011;25372;50.582;12.250;2023-04-15T00:34:12;1.45;;;1.20;;
39698;SDS011;25372;50.582;12.250;2023-04-15T00:44:37;2.40;;;1.40;;
39698;SDS011;25372;50.582;12.250;2023-04-15T00:54:58;1.30;;;1.00;;
39698;SDS011;25372;50.582;12.250;2023-04-15T01:05:20;1.48;;;1.38;;
39698;SDS011;25372;50.582;12.250;2023-04-15T01:15:41;1.23;;;1.05;;
39698;SDS011;25372;50.582;12.250;2023-04-15T01:26:04;2.47;;;1.20;;
39698;SDS011;25372;50.582;12.250;2023-04-15T01:36:26;2.08;;;1.60;;
39698;SDS011;25372;50.582;12.250;2023-04-15T01:46:49;2.05;;;1.13;;
39698;SDS011;25372;50.582;12.250;2023-04-15T01:57:11;1.52;;;1.42;;
39698;SDS011;25372;50.582;12.250;2023-04-15T02:07:35;1.85;;;1.48;;
39698;SDS011;25372;50.582;12.250;2023-04-15T02:17:57;2.45;;;1.83;;
39698;SDS011;25372;50.582;12.250;2023-04-15T02:28:22;2.65;;;1.42;;
39698;SDS011;25372;50.582;12.250;2023-04-15T02:38:44;2.10;;;1.30;;
39698;SDS011;25372;50.582;12.250;2023-04-15T02:49:09;2.43;;;2.03;;
39698;SDS011;25372;50.582;12.250;2023-04-15T02:59:31;1.73;;;1.43;;
39698;SDS011;25372;50.582;12.250;2023-04-15T03:09:55;2.08;;;1.30;;
39698;SDS011;25372;50.582;12.250;2023-04-15T03:20:18;1.58;;;1.40;;
39698;SDS011;25372;50.582;12.250;2023-04-15T03:30:43;1.65;;;1.30;;
39698;SDS011;25372;50.582;12.250;2023-04-15T03:41:06;1.40;;;1.30;;
39698;SDS011;25372;50.582;12.250;2023-04-15T03:51:30;2.22;;;1.40;;
39698;SDS011;25372;50.582;12.250;2023-04-15T04:01:52;4.03;;;1.67;;
39698;SDS011;25372;50.582;12.250;2023-04-15T04:12:16;3.30;;;2.00;;
39698;SDS011;25372;50.582;12.250;2023-04-15T04:22:38;4.22;;;2.03;;
39698;SDS011;25372;50.582;12.250;2023-04-15T04:33:02;3.25;;;2.00;;
39698;SDS011;25372;50.582;12.250;2023-04-15T04:43:24;2.60;;;2.13;;
39698;SDS011;25372;50.582;12.250;2023-04-15T04:53:48;2.63;;;1.77;;
39698;SDS011;25372;50.582;12.250;2023-04-15T05:04:10;3.13;;;1.95;;
39698;SDS011;25372;50.582;12.250;2023-04-15T05:14:33;2.28;;;1.83;;
39698;SDS011;25372;50.582;12.250;2023-04-15T05:24:56;2.28;;;1.65;;
39698;SDS011;25372;50.582;12.250;2023-04-15T05:35:19;2.70;;;1.40;;
39698;SDS011;25372;50.582;12.250;2023-04-15T05:45:42;2.70;;;1.38;;
39698;SDS011;25372;50.582;12.250;2023-04-15T05:56:05;2.55;;;1.13;;
39698;SDS011;25372;50.582;12.250;2023-04-15T06:06:27;3.60;;;0.90;;
39698;SDS011;25372;50.582;12.250;2023-04-15T06:16:51;1.05;;;1.05;;
39698;SDS011;25372;50.582;12.250;2023-04-15T06:27:14;0.70;;;0.65;;
39698;SDS011;25372;50.582;12.250;2023-04-15T06:37:37;0.70;;;0.70;;
39698;SDS011;25372;50.582;12.250;2023-04-15T06:47:59;0.82;;;0.70;;
39698;SDS011;25372;50.582;12.250;2023-04-15T06:58:22;0.73;;;0.73;;
39698;SDS011;25372;50.582;12.250;2023-04-15T07:08:44;0.55;;;0.55;;
39698;SDS011;25372;50.582;12.250;2023-04-15T07:19:08;0.68;;;0.68;;
39698;SDS011;25372;50.582;12.250;2023-04-15T07:29:31;1.03;;;1.00;;
39698;SDS011;25372;50.582;12.250;2023-04-15T07:39:54;2.03;;;0.98;;
39698;SDS011;25372;50.582;12.250;2023-04-15T07:50:17;0.40;;;0.40;;
39698;SDS011;25372;50.582;12.250;2023-04-15T08:00:40;0.80;;;0.80;;
39698;SDS011;25372;50.582;12.250;2023-04-15T08:11:02;1.73;;;0.77;;
39698;SDS011;25372;50.582;12.250;2023-04-15T08:21:25;0.63;;;0.63;;
39698;SDS011;25372;50.582;12.250;2023-04-15T08:31:50;0.80;;;0.52;;
39698;SDS011;25372;50.582;12.250;2023-04-15T08:42:16;0.50;;;0.50;;
39698;SDS011;25372;50.582;12.250;2023-04-15T08:52:40;0.50;;;0.50;;
39698;SDS011;25372;50.582;12.250;2023-04-15T09:03:04;0.60;;;0.57;;
39698;SDS011;25372;50.582;12.250;2023-04-15T09:13:27;1.10;;;1.00;;
39698;SDS011;25372;50.582;12.250;2023-04-15T09:23:57;1.48;;;1.00;;
39698;SDS011;25372;50.582;12.250;2023-04-15T09:34:20;1.13;;;0.90;;
39698;SDS011;25372;50.582;12.250;2023-04-15T09:44:43;1.50;;;1.02;;
39698;SDS011;25372;50.582;12.250;2023-04-15T09:55:06;3.30;;;1.88;;
39698;SDS011;25372;50.582;12.250;2023-04-15T10:05:29;3.78;;;2.30;;
39698;SDS011;25372;50.582;12.250;2023-04-15T10:15:55;5.20;;;2.53;;
39698;SDS011;25372;50.582;12.250;2023-04-15T10:26:19;4.03;;;2.70;;
39698;SDS011;25372;50.582;12.250;2023-04-15T10:36:42;3.88;;;2.15;;
39698;SDS011;25372;50.582;12.250;2023-04-15T10:47:08;5.10;;;2.78;;
39698;SDS011;25372;50.582;12.250;2023-04-15T10:57:36;3.67;;;2.38;;
39698;SDS011;25372;50.582;12.250;2023-04-15T11:08:01;6.22;;;2.10;;
39698;SDS011;25372;50.582;12.250;2023-04-15T11:18:24;3.10;;;1.98;;
39698;SDS011;25372;50.582;12.250;2023-04-15T11:28:49;2.93;;;2.33;;
39698;SDS011;25372;50.582;12.250;2023-04-15T11:39:11;13.68;;;5.68;;
39698;SDS011;25372;50.582;12.250;2023-04-15T11:49:35;3.58;;;3.00;;
39698;SDS011;25372;50.582;12.250;2023-04-15T11:59:59;3.60;;;2.80;;
39698;SDS011;25372;50.582;12.250;2023-04-15T12:10:21;2.20;;;1.73;;
39698;SDS011;25372;50.582;12.250;2023-04-15T12:20:44;3.25;;;2.65;;
39698;SDS011;25372;50.582;12.250;2023-04-15T12:31:07;3.80;;;2.50;;
39698;SDS011;25372;50.582;12.250;2023-04-15T12:41:28;10.32;;;5.75;;
39698;SDS011;25372;50.582;12.250;2023-04-15T12:51:51;6.53;;;4.00;;
39698;SDS011;25372;50.582;12.250;2023-04-15T13:02:13;2.27;;;1.63;;
39698;SDS011;25372;50.582;12.250;2023-04-15T13:12:35;3.70;;;2.35;;
39698;SDS011;25372;50.582;12.250;2023-04-15T13:22:56;3.72;;;3.13;;
39698;SDS011;25372;50.582;12.250;2023-04-15T13:33:18;2.05;;;1.85;;
39698;SDS011;25372;50.582;12.250;2023-04-15T13:43:39;2.80;;;2.42;;
39698;SDS011;25372;50.582;12.250;2023-04-15T13:54:02;2.80;;;2.30;;
39698;SDS011;25372;50.582;12.250;2023-04-15T14:04:23;3.60;;;2.13;;
39698;SDS011;25372;50.582;12.250;2023-04-15T14:14:45;3.03;;;2.55;;
39698;SDS011;25372;50.582;12.250;2023-04-15T14:25:06;3.60;;;2.08;;
39698;SDS011;25372;50.582;12.250;2023-04-15T14:35:28;3.13;;;2.15;;
39698;SDS011;25372;50.582;12.250;2023-04-15T14:45:50;4.55;;;2.15;;
39698;SDS011;25372;50.582;12.250;2023-04-15T14:56:12;2.45;;;2.03;;
39698;SDS011;25372;50.582;12.250;2023-04-15T15:06:33;2.35;;;2.20;;
39698;SDS011;25372;50.582;12.250;2023-04-15T15:16:55;5.20;;;1.75;;
39698;SDS011;25372;50.582;12.250;2023-04-15T15:27:16;4.65;;;2.90;;
39698;SDS011;25372;50.582;12.250;2023-04-15T15:37:38;5.40;;;3.15;;
39698;SDS011;25372;50.582;12.250;2023-04-15T15:48:01;5.03;;;2.43;;
39698;SDS011;25372;50.582;12.250;2023-04-15T15:58:23;3.92;;;2.20;;
39698;SDS011;25372;50.582;12.250;2023-04-15T16:08:45;5.22;;;2.47;;
39698;SDS011;25372;50.582;12.250;2023-04-15T16:19:06;5.43;;;2.20;;
39698;SDS011;25372;50.582;12.250;2023-04-15T16:29:27;6.35;;;2.35;;
39698;SDS011;25372;50.582;12.250;2023-04-15T16:39:49;4.20;;;1.92;;
39698;SDS011;25372;50.582;12.250;2023-04-15T16:50:10;2.92;;;1.50;;
39698;SDS011;25372;50.582;12.250;2023-04-15T17:00:32;4.72;;;2.35;;
39698;SDS011;25372;50.582;12.250;2023-04-15T17:10:55;4.15;;;2.50;;
39698;SDS011;25372;50.582;12.250;2023-04-15T17:21:18;7.53;;;4.35;;
39698;SDS011;25372;50.582;12.250;2023-04-15T17:31:43;25.30;;;8.45;;
39698;SDS011;25372;50.582;12.250;2023-04-15T17:42:25;9.00;;;3.50;;
39698;SDS011;25372;50.582;12.250;2023-04-15T17:53:06;10.32;;;3.00;;
39698;SDS011;25372;50.582;12.250;2023-04-15T18:03:48;5.88;;;4.00;;
39698;SDS011;25372;50.582;12.250;2023-04-15T18:14:29;7.18;;;3.95;;
39698;SDS011;25372;50.582;12.250;2023-04-15T18:25:11;7.50;;;4.40;;
39698;SDS011;25372;50.582;12.250;2023-04-15T18:35:33;8.68;;;5.43;;
39698;SDS011;25372;50.582;12.250;2023-04-15T18:45:56;6.93;;;4.53;;
39698;SDS011;25372;50.582;12.250;2023-04-15T18:56:17;9.02;;;4.47;;
39698;SDS011;25372;50.582;12.250;2023-04-15T19:06:39;9.95;;;5.70;;
39698;SDS011;25372;50.582;12.250;2023-04-15T19:17:00;10.93;;;5.60;;
39698;SDS011;25372;50.582;12.250;2023-04-15T19:27:21;12.00;;;6.80;;
39698;SDS011;25372;50.582;12.250;2023-04-15T19:37:42;12.52;;;6.88;;
39698;SDS011;25372;50.582;12.250;2023-04-15T19:48:05;9.75;;;6.10;;
39698;SDS011;25372;50.582;12.250;2023-04-15T19:58:26;13.93;;;7.97;;
39698;SDS011;25372;50.582;12.250;2023-04-15T20:08:48;13.75;;;7.60;;
39698;SDS011;25372;50.582;12.250;2023-04-15T20:19:08;18.55;;;8.95;;
39698;SDS011;25372;50.582;12.250;2023-04-15T20:29:31;14.88;;;8.05;;
39698;SDS011;25372;50.582;12.250;2023-04-15T20:39:52;14.68;;;7.75;;
39698;SDS011;25372;50.582;12.250;2023-04-15T20:50:14;18.45;;;8.48;;
39698;SDS011;25372;50.582;12.250;2023-04-15T21:00:35;19.95;;;8.80;;
39698;SDS011;25372;50.582;12.250;2023-04-15T21:10:58;17.83;;;9.48;;
39698;SDS011;25372;50.582;12.250;2023-04-15T21:21:19;22.77;;;10.60;;
39698;SDS011;25372;50.582;12.250;2023-04-15T21:31:41;20.88;;;9.68;;
39698;SDS011;25372;50.582;12.250;2023-04-15T21:42:02;20.60;;;10.95;;
39698;SDS011;25372;50.582;12.250;2023-04-15T21:52:24;22.33;;;9.52;;
39698;SDS011;25372;50.582;12.250;2023-04-15T22:02:45;28.70;;;12.68;;
39698;SDS011;25372;50.582;12.250;2023-04-15T22:13:07;24.88;;;11.90;;
39698;SDS011;25372;50.582;12.250;2023-04-15T22:23:29;23.27;;;11.57;;
39698;SDS011;25372;50.582;12.250;2023-04-15T22:33:51;23.02;;;9.68;;
39698;SDS011;25372;50.582;12.250;2023-04-15T22:44:12;18.75;;;10.57;;
39698;SDS011;25372;50.582;12.250;2023-04-15T22:54:34;22.52;;;9.77;;
39698;SDS011;25372;50.582;12.250;2023-04-15T23:04:55;17.65;;;8.98;;
39698;SDS011;25372;50.582;12.250;2023-04-15T23:15:17;22.67;;;10.05;;
39698;SDS011;25372;50.582;12.250;2023-04-15T23:25:38;26.27;;;11.50;;
39698;SDS011;25372;50.582;12.250;2023-04-15T23:36:00;22.92;;;10.50;;
39698;SDS011;25372;50.582;12.250;2023-04-15T23:46:21;26.50;;;12.07;;
39698;SDS011;25372;50.582;12.250;2023-04-15T23:56:43;20.55;;;9.63;;
